Terminal Aerodrome Forecast
Issued by NWS Northern Indiana

Home | Current Version | Previous Version | Graphics & Text | Print | Product List | Glossary On
Versions: 1 2 3 4 5 6 7 8 9 10 11 12
133
FTUS43 KIWX 201730
TAFFWA
TAF
KFWA 201730Z 2018/2118 21016G26KT P6SM FEW250
     FM210000 21015KT P6SM SCT250 WS020/24050KT
     FM211200 23014G24KT P6SM SCT120=

USA.gov is the U.S. government's official web portal to all federal, state and local government web resources and services.